createdAt,value
2023-04-15T00:00:17.733Z,5.93
2023-04-15T00:05:40.289Z,6.55
2023-04-15T00:11:03.212Z,6.20
2023-04-15T00:16:24.062Z,6.57
2023-04-15T00:21:44.339Z,6.18
2023-04-15T00:27:05.566Z,7.47
2023-04-15T00:32:26.018Z,6.75
2023-04-15T00:37:46.530Z,7.30
2023-04-15T00:43:07.269Z,7.25
2023-04-15T00:48:28.334Z,7.93
2023-04-15T00:53:48.776Z,6.47
2023-04-15T00:59:10.288Z,6.63
2023-04-15T01:04:32.672Z,6.20
2023-04-15T01:09:53.496Z,8.45
2023-04-15T01:15:15.036Z,6.25
2023-04-15T01:20:36.343Z,6.53
2023-04-15T01:25:58.453Z,5.40
2023-04-15T01:31:18.937Z,5.00
2023-04-15T01:36:39.322Z,5.25
2023-04-15T01:42:01.467Z,5.35
2023-04-15T01:47:23.456Z,6.20
2023-04-15T01:52:45.192Z,5.38
2023-04-15T01:58:07.526Z,5.35
2023-04-15T02:03:29.592Z,5.15
2023-04-15T02:08:51.659Z,5.22
2023-04-15T02:14:13.263Z,5.07
2023-04-15T02:19:36.022Z,6.30
2023-04-15T02:24:58.765Z,6.43
2023-04-15T02:30:21.345Z,5.55
2023-04-15T02:35:45.508Z,5.27
2023-04-15T02:41:07.212Z,5.15
2023-04-15T02:46:30.696Z,5.18
2023-04-15T02:51:52.653Z,5.18
2023-04-15T02:57:15.992Z,5.93
2023-04-15T03:02:38.976Z,5.22
2023-04-15T03:08:01.394Z,5.30
2023-04-15T03:13:24.496Z,4.65
2023-04-15T03:18:46.394Z,5.15
2023-04-15T03:24:09.620Z,5.55
2023-04-15T03:29:31.672Z,5.32
2023-04-15T03:34:54.485Z,4.20
2023-04-15T03:40:21.673Z,5.70
2023-04-15T03:45:43.237Z,4.07
2023-04-15T03:51:05.214Z,4.60
2023-04-15T03:56:26.990Z,4.82
2023-04-15T04:01:49.483Z,5.35
2023-04-15T04:07:18.434Z,5.10
2023-04-15T04:12:40.175Z,4.80
2023-04-15T04:18:02.135Z,5.43
2023-04-15T04:23:24.371Z,4.60
2023-04-15T04:28:46.041Z,4.97
2023-04-15T04:34:07.848Z,5.93
2023-04-15T04:39:29.499Z,4.90
2023-04-15T04:44:51.568Z,4.53
2023-04-15T04:50:14.410Z,5.55
2023-04-15T04:55:39.011Z,5.57
2023-04-15T05:01:00.838Z,5.25
2023-04-15T05:06:22.626Z,5.63
2023-04-15T05:11:44.625Z,5.28
2023-04-15T05:17:06.652Z,4.43
2023-04-15T05:22:28.437Z,4.72
2023-04-15T05:27:50.628Z,4.47
2023-04-15T05:33:12.463Z,4.60
2023-04-15T05:38:34.579Z,4.30
2023-04-15T05:43:56.709Z,4.30
2023-04-15T05:49:18.419Z,5.05
2023-04-15T05:54:40.400Z,4.88
2023-04-15T06:00:02.232Z,5.30
2023-04-15T06:05:31.545Z,4.65
2023-04-15T06:10:53.508Z,4.97
2023-04-15T06:16:15.455Z,5.40
2023-04-15T06:21:37.486Z,5.53
2023-04-15T06:26:59.257Z,4.78
2023-04-15T06:32:21.404Z,5.22
2023-04-15T06:37:43.648Z,4.30
2023-04-15T06:43:05.476Z,4.47
2023-04-15T06:48:27.564Z,4.20
2023-04-15T06:53:49.462Z,4.05
2023-04-15T06:59:11.045Z,4.85
2023-04-15T07:04:32.854Z,4.40
2023-04-15T07:09:54.714Z,4.50
2023-04-15T07:15:19.978Z,4.50
2023-04-15T07:20:41.923Z,3.88
2023-04-15T07:26:04.042Z,4.05
2023-04-15T07:31:26.432Z,3.65
2023-04-15T07:36:51.928Z,4.68
2023-04-15T07:42:14.059Z,4.80
2023-04-15T07:47:35.720Z,4.68
2023-04-15T07:52:57.673Z,5.13
2023-04-15T07:58:19.264Z,4.07
2023-04-15T08:03:41.382Z,4.40
2023-04-15T08:09:03.881Z,4.88
2023-04-15T08:14:25.915Z,4.78
2023-04-15T08:19:48.341Z,4.10
2023-04-15T08:25:10.451Z,4.65
2023-04-15T08:30:32.396Z,4.90
2023-04-15T08:35:54.518Z,5.55
2023-04-15T08:41:23.771Z,5.28
2023-04-15T08:46:46.179Z,4.75
2023-04-15T08:52:09.360Z,4.18
2023-04-15T08:57:32.083Z,4.93
2023-04-15T09:02:55.587Z,5.18
2023-04-15T09:08:17.723Z,5.03
2023-04-15T09:13:39.942Z,4.47
2023-04-15T09:19:21.560Z,5.13
2023-04-15T09:24:43.553Z,5.43
2023-04-15T09:30:08.824Z,5.40
2023-04-15T09:35:30.900Z,5.28
2023-04-15T09:40:53.056Z,5.32
2023-04-15T09:46:14.737Z,5.97
2023-04-15T09:51:36.588Z,6.30
2023-04-15T09:57:08.978Z,6.13
2023-04-15T10:02:32.110Z,7.00
2023-04-15T10:07:54.359Z,6.65
2023-04-15T10:13:20.480Z,6.93
2023-04-15T10:18:45.869Z,7.00
2023-04-15T10:24:08.564Z,6.93
2023-04-15T10:29:30.654Z,8.00
2023-04-15T10:34:54.664Z,7.10
2023-04-15T10:40:27.306Z,7.07
2023-04-15T10:45:49.007Z,8.10
2023-04-15T10:51:13.977Z,8.38
2023-04-15T10:56:36.293Z,6.90
2023-04-15T11:02:03.140Z,7.07
2023-04-15T11:07:35.216Z,8.52
2023-04-15T11:12:59.470Z,9.45
2023-04-15T11:18:26.579Z,8.88
2023-04-15T11:23:48.038Z,8.70
2023-04-15T11:29:18.011Z,9.60
2023-04-15T11:34:39.809Z,9.30
2023-04-15T11:40:03.752Z,10.15
2023-04-15T11:45:25.699Z,10.55
2023-04-15T11:50:53.754Z,11.50
2023-04-15T11:56:22.903Z,12.95
2023-04-15T12:01:44.096Z,14.35
2023-04-15T12:07:06.823Z,16.00
2023-04-15T12:12:30.851Z,17.52
2023-04-15T12:17:55.061Z,19.98
2023-04-15T12:23:19.736Z,18.60
2023-04-15T12:34:03.477Z,17.60
2023-04-15T12:39:30.701Z,18.20
2023-04-15T12:44:51.653Z,17.75
2023-04-15T12:58:11.656Z,18.27
2023-04-15T13:03:32.437Z,18.20
2023-04-15T13:08:58.412Z,18.05
2023-04-15T13:14:19.292Z,16.45
2023-04-15T13:19:39.950Z,17.35
2023-04-15T13:25:00.479Z,14.50
2023-04-15T13:30:20.883Z,14.48
2023-04-15T13:35:41.528Z,14.27
2023-04-15T13:41:02.021Z,14.23
2023-04-15T13:46:22.404Z,13.60
2023-04-15T13:51:42.710Z,15.45
2023-04-15T13:57:03.435Z,14.07
2023-04-15T14:02:24.316Z,15.60
2023-04-15T14:07:44.985Z,13.25
2023-04-15T14:13:06.231Z,12.98
2023-04-15T14:18:27.328Z,12.27
2023-04-15T14:23:48.287Z,13.60
2023-04-15T14:29:08.782Z,13.35
2023-04-15T14:34:29.502Z,14.05
2023-04-15T14:39:50.479Z,12.80
2023-04-15T14:45:11.228Z,12.77
2023-04-15T14:50:31.879Z,11.68
2023-04-15T14:55:52.645Z,16.30
2023-04-15T15:01:13.074Z,21.33
2023-04-15T15:06:34.472Z,12.93
2023-04-15T15:11:54.862Z,13.95
2023-04-15T15:17:15.403Z,13.60
2023-04-15T15:22:36.051Z,13.45
2023-04-15T15:27:57.750Z,12.50
2023-04-15T15:33:18.213Z,13.40
2023-04-15T15:38:40.570Z,13.20
2023-04-15T15:44:01.103Z,13.57
2023-04-15T15:49:21.510Z,14.82
2023-04-15T15:54:42.260Z,14.85
2023-04-15T16:10:47.835Z,15.05
2023-04-15T16:16:08.332Z,15.40
2023-04-15T16:21:28.938Z,15.20
2023-04-15T16:26:49.895Z,14.82
2023-04-15T16:32:11.081Z,13.77
2023-04-15T16:37:33.103Z,14.68
2023-04-15T16:42:54.028Z,14.30
2023-04-15T16:48:14.359Z,14.30
2023-04-15T16:53:34.889Z,13.30
2023-04-15T16:58:55.822Z,21.05
2023-04-15T17:04:16.480Z,14.25
2023-04-15T17:09:39.177Z,14.10
2023-04-15T17:15:05.761Z,14.00
2023-04-15T17:20:26.660Z,12.88
2023-04-15T17:25:47.777Z,14.80
2023-04-15T17:31:08.837Z,16.05
2023-04-15T17:36:51.305Z,13.50
2023-04-15T17:42:31.789Z,12.30
2023-04-15T17:48:13.243Z,14.32
2023-04-15T17:53:53.805Z,14.02
2023-04-15T17:59:35.069Z,11.75
2023-04-15T18:05:16.153Z,13.10
2023-04-15T18:10:56.759Z,11.98
2023-04-15T18:16:37.092Z,13.07
2023-04-15T18:22:17.949Z,12.80
2023-04-15T18:27:41.586Z,13.00
2023-04-15T18:33:02.549Z,11.82
2023-04-15T18:38:23.786Z,12.30
2023-04-15T18:43:44.375Z,11.02
2023-04-15T18:49:05.032Z,11.02
2023-04-15T18:54:25.568Z,10.57
2023-04-15T18:59:46.472Z,11.18
2023-04-15T19:05:07.185Z,10.80
2023-04-15T19:10:30.525Z,10.75
2023-04-15T19:15:51.803Z,9.35
2023-04-15T19:21:12.994Z,11.05
2023-04-15T19:26:33.752Z,10.95
2023-04-15T19:31:55.018Z,10.65
2023-04-15T19:37:16.100Z,10.55
2023-04-15T19:42:36.762Z,10.43
2023-04-15T19:47:57.930Z,10.27
2023-04-15T19:53:18.029Z,11.25
2023-04-15T19:58:38.730Z,9.40
2023-04-15T20:03:59.655Z,10.80
2023-04-15T20:09:20.386Z,10.95
2023-04-15T20:14:41.501Z,10.65
2023-04-15T20:20:03.955Z,10.77
2023-04-15T20:25:24.561Z,11.07
2023-04-15T20:30:45.862Z,12.18
2023-04-15T20:36:06.972Z,11.95
2023-04-15T20:41:28.028Z,11.18
2023-04-15T20:46:48.499Z,11.73
2023-04-15T20:52:09.930Z,11.73
2023-04-15T20:57:30.402Z,11.95
2023-04-15T21:02:52.834Z,11.98
2023-04-15T21:08:51.126Z,12.18
2023-04-15T21:14:27.734Z,12.60
2023-04-15T21:20:07.895Z,13.85
2023-04-15T21:25:31.208Z,13.90
2023-04-15T21:30:54.045Z,8.50
2023-04-15T21:36:15.159Z,13.95
2023-04-15T21:41:36.981Z,14.50
2023-04-15T21:46:57.528Z,12.95
2023-04-15T21:52:18.200Z,13.95
2023-04-15T21:57:38.744Z,13.15
2023-04-15T22:03:02.767Z,13.02
2023-04-15T22:08:24.158Z,14.50
2023-04-15T22:13:45.401Z,14.48
2023-04-15T22:19:06.384Z,15.10
2023-04-15T22:24:38.053Z,14.77
2023-04-15T22:30:01.222Z,14.60
2023-04-15T22:35:21.973Z,15.55
2023-04-15T22:40:42.707Z,14.38
2023-04-15T22:46:03.150Z,14.68
2023-04-15T22:51:26.804Z,14.32
2023-04-15T22:56:47.320Z,14.68
2023-04-15T23:02:07.982Z,14.45
2023-04-15T23:07:29.127Z,14.48
2023-04-15T23:12:49.526Z,14.00
2023-04-15T23:18:10.435Z,14.52
2023-04-15T23:23:31.200Z,14.43
2023-04-15T23:28:51.863Z,15.27
2023-04-15T23:34:12.475Z,16.20
2023-04-15T23:39:33.082Z,14.48
2023-04-15T23:44:53.408Z,16.33
2023-04-15T23:50:15.250Z,15.77
2023-04-15T23:55:36.220Z,15.55
